Flight Track Log - Related Links

Times and Time Zones

All times are in EDT time to prevent confusion due to time zone crossing. See the EJM242 flight status page for this flight to view local times or setup timezone preferences in your user account.

Time Position Orientation Groundspeed Altitude Reporting Facility
EDT Latitude Longitude Course Direction KTS MPH feet Rate Location/Type
Mon 08:38:57 AM 41.0833 -73.7833 239° Southwest 211 243 3,500  Level New York TRACON
Mon 08:39:57 AM 41.0667 -73.8667 255° West 247 284 7,000 4,250 Climbing New York TRACON
Mon 08:40:57 AM 41.0333 -73.9333 236° Southwest 246 283 12,000 4,000 Climbing New York TRACON
Mon 08:41:57 AM 40.9833 -74.0167 232° Southwest 280 322 15,000 1,500 Climbing New York TRACON
Mon 08:42:57 AM 40.9333 -74.1000 232° Southwest 310 357 15,000 182 Level New York TRACON
Mon 08:44:00 AM 40.7610 -74.2925 239° Southwest  Level FlightAware Approximate
Mon 08:44:42 AM 40.8456 -74.2603 234° Southwest 314 361 15,500  Level New York Center
Mon 08:45:43 AM 40.7842 -74.3642 232° Southwest 314 361 17,000 793 Climbing New York Center
Mon 08:46:43 AM 40.7269 -74.4569 231° Southwest 324 373 17,100 1,438 Climbing New York Center
Mon 08:47:44 AM 40.6786 -74.5392 232° Southwest 329 379 19,900 3,277 Climbing New York Center
Mon 08:48:42 AM 40.6378 -74.6408 242° Southwest 329 379 23,600 3,782 Climbing New York Center
Mon 08:49:43 AM 40.6258 -74.7467 262° West 307 353 27,400 2,380 Climbing New York Center
Mon 08:50:43 AM 40.6117 -74.8606 261° West 300 345 28,400 1,271 Climbing New York Center
Mon 08:51:41 AM 40.5664 -74.9644 240° Southwest 313 360 29,900 1,513 Climbing New York Center
Mon 08:52:42 AM 40.4925 -75.0447 220° Southwest 323 372 31,400 1,426 Climbing New York Center
Mon 08:53:43 AM 40.4189 -75.1247 220° Southwest 337 388 32,800 1,339 Climbing New York Center
Mon 08:54:43 AM 40.3447 -75.2069 220° Southwest 349 402 34,100 1,160 Climbing New York Center
Mon 08:55:42 AM 40.2708 -75.2894 220° Southwest 354 407 35,100 1,000 Climbing New York Center
Mon 08:56:43 AM 40.1947 -75.3742 220° Southwest 354 407 36,100 984 Climbing New York Center
Mon 08:57:44 AM 40.1161 -75.4583 219° Southwest 360 414 37,100 966 Climbing New York Center
Mon 08:58:41 AM 40.0400 -75.5400 219° Southwest 365 420 38,000 458 Climbing New York Center
Mon 08:59:42 AM 39.9614 -75.6269 220° Southwest 370 426 38,000  Level New York Center
Mon 09:00:41 AM 39.8775 -75.7400 226° Southwest 383 441 38,000  Level New York Center
Mon 09:01:42 AM 39.8083 -75.8486 230° Southwest 399 459 38,000  Level New York Center
Mon 09:03:14 AM 39.7131 -75.9989 231° Southwest 386 444 38,000  Level Washington Center
Mon 09:04:12 AM 39.6458 -76.1061 231° Southwest 386 444 38,000  Level Washington Center
Mon 09:05:13 AM 39.5786 -76.2136 231° Southwest 392 451 38,000  Level Washington Center
Mon 09:06:13 AM 39.5092 -76.3231 231° Southwest 392 451 38,000  Level Washington Center
Mon 09:07:14 AM 39.4397 -76.4300 230° Southwest 397 457 38,000  Level Washington Center
Mon 09:08:14 AM 39.3661 -76.5364 228° Southwest 403 464 38,000  Level Washington Center
Mon 09:09:12 AM 39.2986 -76.6431 231° Southwest 403 464 38,000  Level Washington Center
Mon 09:10:13 AM 39.2308 -76.7492 231° Southwest 398 458 38,000  Level Washington Center
Mon 09:11:13 AM 39.1631 -76.8550 230° Southwest 398 458 38,000  Level Washington Center
Mon 09:12:14 AM 39.0931 -76.9636 230° Southwest 398 458 38,000  Level Washington Center
Mon 09:13:12 AM 39.0211 -77.0639 227° Southwest 398 458 38,000  Level Washington Center
Mon 09:14:13 AM 38.9303 -77.1633 220° Southwest 398 458 38,000  Level Washington Center
Mon 09:15:14 AM 38.8456 -77.2547 220° Southwest 398 458 38,000  Level Washington Center
Mon 09:16:12 AM 38.7631 -77.3489 222° Southwest 398 458 38,000  Level Washington Center
Mon 09:17:12 AM 38.6783 -77.4400 220° Southwest 398 458 38,000  Level Washington Center
Mon 09:18:13 AM 38.5956 -77.5308 221° Southwest 398 458 38,000  Level Washington Center
Mon 09:19:14 AM 38.5106 -77.6214 220° Southwest 398 458 38,000  Level Washington Center
Mon 09:20:12 AM 38.4278 -77.7119 221° Southwest 398 458 38,000  Level Washington Center
Mon 09:21:13 AM 38.3447 -77.8022 220° Southwest 398 458 38,000  Level Washington Center
Mon 09:22:14 AM 38.2597 -77.8922 220° Southwest 398 458 38,000  Level Washington Center
Mon 09:23:14 AM 38.1767 -77.9822 220° Southwest 398 458 38,000  Level Washington Center
Mon 09:24:12 AM 38.0933 -78.0719 220° Southwest 393 452 38,000  Level Washington Center
Mon 09:25:12 AM 38.0272 -78.1408 219° Southwest 393 452 38,000  Level Washington Center
Mon 09:26:13 AM 37.9356 -78.2325 218° Southwest 393 452 38,000  Level Washington Center
Mon 09:27:14 AM 37.8506 -78.3136 217° Southwest 393 452 38,000  Level Washington Center
Mon 09:28:12 AM 37.7608 -78.3972 216° Southwest 393 452 38,000  Level Washington Center
Mon 09:29:13 AM 37.6669 -78.4881 217° Southwest 399 459 38,000  Level Washington Center
Mon 09:30:14 AM 37.5794 -78.5686 216° Southwest 399 459 38,000  Level Washington Center
Mon 09:31:14 AM 37.4897 -78.6517 216° Southwest 399 459 38,000  Level Washington Center
Mon 09:32:13 AM 37.4022 -78.7344 217° Southwest 399 459 38,000  Level Washington Center
Mon 09:33:13 AM 37.3144 -78.8169 217° Southwest 399 459 38,000  Level Washington Center
Mon 09:34:14 AM 37.2353 -78.8867 215° Southwest 399 459 38,000  Level Washington Center
Mon 09:35:14 AM 37.1475 -78.9689 217° Southwest 399 459 38,000  Level Washington Center
Mon 09:36:14 AM 37.0597 -79.0508 217° Southwest 399 459 38,000  Level Washington Center
Mon 09:37:13 AM 36.9694 -79.1353 217° Southwest 399 459 38,000  Level Washington Center
Mon 09:38:14 AM 36.8836 -79.2144 216° Southwest 399 459 38,000  Level Washington Center
Mon 09:39:12 AM 36.7850 -79.3031 216° Southwest 399 459 38,000  Level Washington Center
Mon 09:40:12 AM 36.6969 -79.3844 217° Southwest 399 459 38,000  Level Washington Center
Mon 09:41:13 AM 36.6108 -79.4656 217° Southwest 399 459 38,000  Level Washington Center
Mon 09:42:13 AM 36.5228 -79.5439 216° Southwest 399 459 38,000  Level Washington Center
Mon 09:43:14 AM 36.4411 -79.6172 216° Southwest 399 459 38,000  Level Washington Center
Mon 09:44:55 AM 36.2800 -79.7608 216° Southwest 402 463 38,000  Level Atlanta Center
Mon 09:45:55 AM 36.1969 -79.8347 216° Southwest 402 463 38,000  Level Atlanta Center
Mon 09:46:55 AM 36.1100 -79.9136 216° Southwest 397 457 38,000 -400 Level Atlanta Center
Mon 09:47:55 AM 36.0186 -79.9903 214° Southwest 397 457 37,200 -900 Descending Atlanta Center
Mon 09:48:55 AM 35.9117 -80.0392 200° South 397 457 36,200 -1,000 Descending Atlanta Center
Mon 09:49:55 AM 35.8092 -80.0928 203° Southwest 403 464 35,200 -1,050 Descending Atlanta Center
Mon 09:50:55 AM 35.6961 -80.1469 201° Southwest 403 464 34,100 -600 Descending Atlanta Center
Mon 09:51:55 AM 35.5978 -80.2028 205° Southwest 397 457 34,000 -100 Descending Atlanta Center
Mon 09:52:55 AM 35.4972 -80.2533 202° Southwest 397 457 33,900 -550 Descending Atlanta Center
Mon 09:53:55 AM 35.3986 -80.3011 202° Southwest 391 450 32,900 -1,000 Descending Atlanta Center
Mon 09:54:55 AM 35.2997 -80.3514 203° Southwest 388 447 31,900 -1,000 Descending Atlanta Center
Mon 09:55:55 AM 35.1969 -80.4017 202° Southwest 394 453 30,900 -950 Descending Atlanta Center
Mon 09:56:55 AM 35.1086 -80.4461 202° Southwest 387 445 30,000 -950 Descending Atlanta Center
Mon 09:57:55 AM 35.0078 -80.4961 202° Southwest 394 453 29,000 -1,000 Descending Atlanta Center
Mon 09:58:55 AM 34.9069 -80.5461 202° Southwest 394 453 28,000 -1,200 Descending Atlanta Center
Mon 10:01:15 AM 34.6742 -80.6608 202° Southwest 393 452 25,000 -1,470 Descending Jacksonville Center
Mon 10:02:15 AM 34.5581 -80.6992 195° South 392 451 23,100 -2,100 Descending Jacksonville Center
Mon 10:03:15 AM 34.4539 -80.7144 187° South 392 451 20,800 -2,100 Descending Jacksonville Center
Mon 10:04:15 AM 34.3478 -80.7297 187° South 386 444 18,900 -1,800 Descending Jacksonville Center
Mon 10:05:15 AM 34.2625 -80.7469 189° South 380 437 17,200 -1,850 Descending Jacksonville Center
Mon 10:06:15 AM 34.1628 -80.7694 191° South 365 420 15,200 -1,900 Descending Jacksonville Center
Mon 10:07:15 AM 34.0714 -80.7942 193° South 360 414 13,400 -1,500 Descending Jacksonville Center
Mon 10:08:15 AM 34.0122 -80.8808 231° Southwest 329 379 12,200 -1,150 Descending Jacksonville Center
Mon 10:09:15 AM 33.9658 -80.9769 240° Southwest 324 373 11,100 -1,000 Descending Jacksonville Center
Mon 10:10:15 AM 33.9214 -81.0831 243° Southwest 324 373 10,200 -650 Descending Jacksonville Center
Mon 10:11:15 AM 33.8831 -81.1714 242° Southwest 317 365 9,800 -1,000 Descending Jacksonville Center
Mon 10:12:15 AM 33.8486 -81.2472 241° Southwest 289 333 8,200 -1,500 Descending Jacksonville Center
Mon 10:13:15 AM 33.8142 -81.3228 241° Southwest 274 315 6,800 -1,300 Descending Jacksonville Center
Mon 10:14:15 AM 33.7794 -81.3983 241° Southwest 267 307 5,600 -1,350 Descending Jacksonville Center
Mon 10:15:15 AM 33.7514 -81.4786 247° West 267 307 4,100 -1,500 Descending Jacksonville Center

Login

Don't have an account? Register now (free) for customized features, flight alerts, and more!